sensor_id;sensor_type;location;lat;lon;timestamp;P1;durP1;ratioP1;P2;durP2;ratioP2
18793;SDS011;29610;49.022;12.114;2023-05-10T00:02:18;11.87;;;3.63;;
18793;SDS011;29610;49.022;12.114;2023-05-10T00:05:07;9.63;;;3.70;;
18793;SDS011;29610;49.022;12.114;2023-05-10T00:07:56;8.97;;;3.70;;
18793;SDS011;29610;49.022;12.114;2023-05-10T00:10:45;10.10;;;3.90;;
18793;SDS011;29610;49.022;12.114;2023-05-10T00:13:35;9.00;;;3.60;;
18793;SDS011;29610;49.022;12.114;2023-05-10T00:16:24;10.97;;;4.00;;
18793;SDS011;29610;49.022;12.114;2023-05-10T00:19:13;9.80;;;3.67;;
18793;SDS011;29610;49.022;12.114;2023-05-10T00:22:02;11.23;;;4.20;;
18793;SDS011;29610;49.022;12.114;2023-05-10T00:24:51;8.80;;;3.67;;
18793;SDS011;29610;49.022;12.114;2023-05-10T00:27:40;11.70;;;4.00;;
18793;SDS011;29610;49.022;12.114;2023-05-10T00:30:30;8.77;;;3.90;;
18793;SDS011;29610;49.022;12.114;2023-05-10T00:33:19;11.63;;;4.20;;
18793;SDS011;29610;49.022;12.114;2023-05-10T00:36:07;9.87;;;4.03;;
18793;SDS011;29610;49.022;12.114;2023-05-10T00:38:56;10.57;;;4.47;;
18793;SDS011;29610;49.022;12.114;2023-05-10T00:41:45;8.53;;;3.47;;
18793;SDS011;29610;49.022;12.114;2023-05-10T00:44:35;8.73;;;3.30;;
18793;SDS011;29610;49.022;12.114;2023-05-10T00:47:26;8.60;;;3.40;;
18793;SDS011;29610;49.022;12.114;2023-05-10T00:50:15;22.40;;;4.13;;
18793;SDS011;29610;49.022;12.114;2023-05-10T00:53:04;8.33;;;3.83;;
18793;SDS011;29610;49.022;12.114;2023-05-10T00:55:54;8.77;;;3.80;;
18793;SDS011;29610;49.022;12.114;2023-05-10T00:58:44;8.40;;;3.40;;
18793;SDS011;29610;49.022;12.114;2023-05-10T01:01:33;10.63;;;4.40;;
18793;SDS011;29610;49.022;12.114;2023-05-10T01:04:24;10.23;;;4.20;;
18793;SDS011;29610;49.022;12.114;2023-05-10T01:07:13;9.33;;;4.03;;
18793;SDS011;29610;49.022;12.114;2023-05-10T01:10:02;8.47;;;3.63;;
18793;SDS011;29610;49.022;12.114;2023-05-10T01:12:52;10.30;;;4.00;;
18793;SDS011;29610;49.022;12.114;2023-05-10T01:15:41;11.03;;;4.13;;
18793;SDS011;29610;49.022;12.114;2023-05-10T01:18:30;8.17;;;3.57;;
18793;SDS011;29610;49.022;12.114;2023-05-10T01:21:27;9.50;;;4.20;;
18793;SDS011;29610;49.022;12.114;2023-05-10T01:24:49;9.77;;;3.90;;
18793;SDS011;29610;49.022;12.114;2023-05-10T01:32:29;12.77;;;3.97;;
18793;SDS011;29610;49.022;12.114;2023-05-10T01:35:26;9.43;;;4.10;;
18793;SDS011;29610;49.022;12.114;2023-05-10T01:38:27;9.33;;;4.13;;
18793;SDS011;29610;49.022;12.114;2023-05-10T01:41:28;15.43;;;4.10;;
18793;SDS011;29610;49.022;12.114;2023-05-10T01:44:29;9.23;;;4.13;;
18793;SDS011;29610;49.022;12.114;2023-05-10T01:47:24;8.43;;;3.77;;
18793;SDS011;29610;49.022;12.114;2023-05-10T01:50:24;10.20;;;4.50;;
18793;SDS011;29610;49.022;12.114;2023-05-10T01:53:18;9.77;;;4.23;;
18793;SDS011;29610;49.022;12.114;2023-05-10T01:56:09;15.83;;;5.30;;
18793;SDS011;29610;49.022;12.114;2023-05-10T01:59:00;10.10;;;5.07;;
18793;SDS011;29610;49.022;12.114;2023-05-10T02:01:59;10.37;;;4.77;;
18793;SDS011;29610;49.022;12.114;2023-05-10T02:04:51;9.07;;;4.00;;
18793;SDS011;29610;49.022;12.114;2023-05-10T02:07:43;10.47;;;4.83;;
18793;SDS011;29610;49.022;12.114;2023-05-10T02:10:33;11.13;;;4.30;;
18793;SDS011;29610;49.022;12.114;2023-05-10T02:13:23;10.40;;;3.93;;
18793;SDS011;29610;49.022;12.114;2023-05-10T02:16:14;9.70;;;4.80;;
18793;SDS011;29610;49.022;12.114;2023-05-10T02:19:09;9.27;;;4.10;;
18793;SDS011;29610;49.022;12.114;2023-05-10T02:22:03;10.70;;;4.60;;
18793;SDS011;29610;49.022;12.114;2023-05-10T02:24:53;12.07;;;5.30;;
18793;SDS011;29610;49.022;12.114;2023-05-10T02:27:43;11.20;;;5.43;;
18793;SDS011;29610;49.022;12.114;2023-05-10T02:30:34;10.97;;;5.00;;
18793;SDS011;29610;49.022;12.114;2023-05-10T02:33:25;10.03;;;5.00;;
18793;SDS011;29610;49.022;12.114;2023-05-10T02:36:15;11.33;;;5.93;;
18793;SDS011;29610;49.022;12.114;2023-05-10T02:39:07;13.53;;;5.70;;
18793;SDS011;29610;49.022;12.114;2023-05-10T02:41:59;11.90;;;5.80;;
18793;SDS011;29610;49.022;12.114;2023-05-10T02:44:50;11.50;;;5.63;;
18793;SDS011;29610;49.022;12.114;2023-05-10T02:47:44;12.50;;;6.10;;
18793;SDS011;29610;49.022;12.114;2023-05-10T02:50:33;11.67;;;4.90;;
18793;SDS011;29610;49.022;12.114;2023-05-10T02:53:28;11.73;;;5.60;;
18793;SDS011;29610;49.022;12.114;2023-05-10T02:56:23;15.20;;;5.67;;
18793;SDS011;29610;49.022;12.114;2023-05-10T02:59:19;11.63;;;5.40;;
18793;SDS011;29610;49.022;12.114;2023-05-10T03:02:08;12.30;;;5.20;;
18793;SDS011;29610;49.022;12.114;2023-05-10T03:04:58;13.70;;;5.93;;
18793;SDS011;29610;49.022;12.114;2023-05-10T03:07:47;13.20;;;5.90;;
18793;SDS011;29610;49.022;12.114;2023-05-10T03:10:39;18.53;;;6.60;;
18793;SDS011;29610;49.022;12.114;2023-05-10T03:13:48;12.23;;;5.77;;
18793;SDS011;29610;49.022;12.114;2023-05-10T03:17:00;13.00;;;5.80;;
18793;SDS011;29610;49.022;12.114;2023-05-10T03:19:58;13.83;;;6.50;;
18793;SDS011;29610;49.022;12.114;2023-05-10T03:22:55;18.70;;;7.17;;
18793;SDS011;29610;49.022;12.114;2023-05-10T03:25:50;13.00;;;6.77;;
18793;SDS011;29610;49.022;12.114;2023-05-10T03:28:40;15.20;;;6.97;;
18793;SDS011;29610;49.022;12.114;2023-05-10T03:31:31;11.97;;;6.63;;
18793;SDS011;29610;49.022;12.114;2023-05-10T03:34:23;15.07;;;7.77;;
18793;SDS011;29610;49.022;12.114;2023-05-10T03:37:12;13.50;;;6.53;;
18793;SDS011;29610;49.022;12.114;2023-05-10T03:40:01;13.53;;;7.83;;
18793;SDS011;29610;49.022;12.114;2023-05-10T03:42:53;16.23;;;8.70;;
18793;SDS011;29610;49.022;12.114;2023-05-10T03:45:42;16.47;;;8.03;;
18793;SDS011;29610;49.022;12.114;2023-05-10T03:48:33;16.50;;;9.10;;
18793;SDS011;29610;49.022;12.114;2023-05-10T03:51:22;18.33;;;9.63;;
18793;SDS011;29610;49.022;12.114;2023-05-10T03:54:14;17.60;;;9.10;;
18793;SDS011;29610;49.022;12.114;2023-05-10T03:57:03;19.43;;;9.30;;
18793;SDS011;29610;49.022;12.114;2023-05-10T03:59:52;14.90;;;8.27;;
18793;SDS011;29610;49.022;12.114;2023-05-10T04:02:42;17.60;;;8.53;;
18793;SDS011;29610;49.022;12.114;2023-05-10T04:05:38;17.13;;;8.90;;
18793;SDS011;29610;49.022;12.114;2023-05-10T04:08:27;20.03;;;10.87;;
18793;SDS011;29610;49.022;12.114;2023-05-10T04:11:16;19.80;;;11.07;;
18793;SDS011;29610;49.022;12.114;2023-05-10T04:14:05;23.70;;;10.20;;
18793;SDS011;29610;49.022;12.114;2023-05-10T04:16:54;28.30;;;12.30;;
18793;SDS011;29610;49.022;12.114;2023-05-10T04:19:43;20.53;;;10.93;;
18793;SDS011;29610;49.022;12.114;2023-05-10T04:22:33;22.03;;;10.30;;
18793;SDS011;29610;49.022;12.114;2023-05-10T04:25:22;25.27;;;9.60;;
18793;SDS011;29610;49.022;12.114;2023-05-10T04:28:11;19.80;;;10.10;;
18793;SDS011;29610;49.022;12.114;2023-05-10T04:31:02;22.30;;;10.00;;
18793;SDS011;29610;49.022;12.114;2023-05-10T04:33:53;36.00;;;9.17;;
18793;SDS011;29610;49.022;12.114;2023-05-10T04:36:41;21.70;;;9.73;;
18793;SDS011;29610;49.022;12.114;2023-05-10T04:39:32;19.87;;;9.97;;
18793;SDS011;29610;49.022;12.114;2023-05-10T04:42:21;19.90;;;11.00;;
18793;SDS011;29610;49.022;12.114;2023-05-10T04:45:09;22.17;;;10.13;;
18793;SDS011;29610;49.022;12.114;2023-05-10T04:47:58;18.87;;;10.20;;
18793;SDS011;29610;49.022;12.114;2023-05-10T04:50:47;20.93;;;10.17;;
18793;SDS011;29610;49.022;12.114;2023-05-10T04:53:36;18.60;;;10.67;;
18793;SDS011;29610;49.022;12.114;2023-05-10T04:56:26;18.27;;;9.97;;
18793;SDS011;29610;49.022;12.114;2023-05-10T04:59:15;20.50;;;10.30;;
18793;SDS011;29610;49.022;12.114;2023-05-10T05:02:04;23.47;;;11.00;;
18793;SDS011;29610;49.022;12.114;2023-05-10T05:04:55;21.33;;;10.60;;
18793;SDS011;29610;49.022;12.114;2023-05-10T05:07:47;17.83;;;10.27;;
18793;SDS011;29610;49.022;12.114;2023-05-10T05:10:36;19.27;;;9.37;;
18793;SDS011;29610;49.022;12.114;2023-05-10T05:13:26;22.00;;;11.83;;
18793;SDS011;29610;49.022;12.114;2023-05-10T05:16:15;20.40;;;11.40;;
18793;SDS011;29610;49.022;12.114;2023-05-10T05:19:04;24.60;;;11.87;;
18793;SDS011;29610;49.022;12.114;2023-05-10T05:21:53;20.20;;;10.50;;
18793;SDS011;29610;49.022;12.114;2023-05-10T05:24:41;22.83;;;11.67;;
18793;SDS011;29610;49.022;12.114;2023-05-10T05:27:32;21.90;;;11.40;;
18793;SDS011;29610;49.022;12.114;2023-05-10T05:30:22;26.70;;;13.23;;
18793;SDS011;29610;49.022;12.114;2023-05-10T05:33:11;27.63;;;15.50;;
18793;SDS011;29610;49.022;12.114;2023-05-10T05:36:02;22.30;;;12.20;;
18793;SDS011;29610;49.022;12.114;2023-05-10T05:38:53;26.30;;;10.90;;
18793;SDS011;29610;49.022;12.114;2023-05-10T05:41:43;19.30;;;11.60;;
18793;SDS011;29610;49.022;12.114;2023-05-10T05:44:33;20.90;;;10.20;;
18793;SDS011;29610;49.022;12.114;2023-05-10T05:47:23;22.10;;;11.90;;
18793;SDS011;29610;49.022;12.114;2023-05-10T05:50:12;18.57;;;11.83;;
18793;SDS011;29610;49.022;12.114;2023-05-10T05:53:01;20.20;;;11.77;;
18793;SDS011;29610;49.022;12.114;2023-05-10T05:55:52;20.37;;;12.40;;
18793;SDS011;29610;49.022;12.114;2023-05-10T05:58:42;27.20;;;13.43;;
18793;SDS011;29610;49.022;12.114;2023-05-10T06:01:32;20.73;;;11.50;;
18793;SDS011;29610;49.022;12.114;2023-05-10T06:04:22;23.43;;;13.80;;
18793;SDS011;29610;49.022;12.114;2023-05-10T06:07:11;21.27;;;12.67;;
18793;SDS011;29610;49.022;12.114;2023-05-10T06:10:00;20.73;;;12.77;;
18793;SDS011;29610;49.022;12.114;2023-05-10T06:12:49;21.80;;;11.93;;
18793;SDS011;29610;49.022;12.114;2023-05-10T06:15:39;18.87;;;11.60;;
18793;SDS011;29610;49.022;12.114;2023-05-10T06:18:28;20.90;;;11.50;;
18793;SDS011;29610;49.022;12.114;2023-05-10T06:21:18;23.50;;;12.83;;
18793;SDS011;29610;49.022;12.114;2023-05-10T06:24:07;18.73;;;10.87;;
18793;SDS011;29610;49.022;12.114;2023-05-10T06:26:56;19.90;;;11.90;;
18793;SDS011;29610;49.022;12.114;2023-05-10T06:29:47;33.90;;;12.67;;
18793;SDS011;29610;49.022;12.114;2023-05-10T06:32:42;25.33;;;15.00;;
18793;SDS011;29610;49.022;12.114;2023-05-10T06:35:32;19.27;;;12.40;;
18793;SDS011;29610;49.022;12.114;2023-05-10T06:38:22;20.87;;;11.80;;
18793;SDS011;29610;49.022;12.114;2023-05-10T06:41:11;23.47;;;12.47;;
18793;SDS011;29610;49.022;12.114;2023-05-10T06:44:01;19.60;;;11.50;;
18793;SDS011;29610;49.022;12.114;2023-05-10T06:46:50;23.27;;;13.67;;
18793;SDS011;29610;49.022;12.114;2023-05-10T06:49:40;23.60;;;13.20;;
18793;SDS011;29610;49.022;12.114;2023-05-10T06:52:29;26.57;;;15.03;;
18793;SDS011;29610;49.022;12.114;2023-05-10T06:55:19;25.87;;;14.70;;
18793;SDS011;29610;49.022;12.114;2023-05-10T06:58:08;22.50;;;13.00;;
18793;SDS011;29610;49.022;12.114;2023-05-10T07:01:01;22.50;;;14.00;;
18793;SDS011;29610;49.022;12.114;2023-05-10T07:03:51;24.47;;;12.47;;
18793;SDS011;29610;49.022;12.114;2023-05-10T07:06:40;19.90;;;12.13;;
18793;SDS011;29610;49.022;12.114;2023-05-10T07:09:28;21.93;;;13.17;;
18793;SDS011;29610;49.022;12.114;2023-05-10T07:12:19;27.47;;;12.23;;
18793;SDS011;29610;49.022;12.114;2023-05-10T07:15:08;26.80;;;12.47;;
18793;SDS011;29610;49.022;12.114;2023-05-10T07:17:57;26.00;;;13.97;;
18793;SDS011;29610;49.022;12.114;2023-05-10T07:20:46;22.20;;;13.13;;
18793;SDS011;29610;49.022;12.114;2023-05-10T07:23:35;25.23;;;11.70;;
18793;SDS011;29610;49.022;12.114;2023-05-10T07:26:24;18.40;;;11.50;;
18793;SDS011;29610;49.022;12.114;2023-05-10T07:29:14;20.17;;;10.10;;
18793;SDS011;29610;49.022;12.114;2023-05-10T07:32:03;18.17;;;10.37;;
18793;SDS011;29610;49.022;12.114;2023-05-10T07:34:52;17.90;;;10.63;;
18793;SDS011;29610;49.022;12.114;2023-05-10T07:37:41;21.17;;;10.77;;
18793;SDS011;29610;49.022;12.114;2023-05-10T07:40:30;27.60;;;11.37;;
18793;SDS011;29610;49.022;12.114;2023-05-10T07:43:20;19.37;;;11.17;;
18793;SDS011;29610;49.022;12.114;2023-05-10T07:46:10;16.77;;;9.77;;
18793;SDS011;29610;49.022;12.114;2023-05-10T07:48:59;17.33;;;8.67;;
18793;SDS011;29610;49.022;12.114;2023-05-10T07:51:48;16.33;;;8.43;;
18793;SDS011;29610;49.022;12.114;2023-05-10T07:54:37;17.60;;;10.17;;
18793;SDS011;29610;49.022;12.114;2023-05-10T07:57:26;18.87;;;10.10;;
18793;SDS011;29610;49.022;12.114;2023-05-10T08:00:16;15.63;;;8.83;;
18793;SDS011;29610;49.022;12.114;2023-05-10T08:03:08;18.20;;;8.33;;
18793;SDS011;29610;49.022;12.114;2023-05-10T08:05:57;18.70;;;9.60;;
18793;SDS011;29610;49.022;12.114;2023-05-10T08:08:46;16.63;;;8.80;;
18793;SDS011;29610;49.022;12.114;2023-05-10T08:11:37;13.77;;;8.00;;
18793;SDS011;29610;49.022;12.114;2023-05-10T08:14:27;14.20;;;7.80;;
18793;SDS011;29610;49.022;12.114;2023-05-10T08:17:17;15.50;;;8.40;;
18793;SDS011;29610;49.022;12.114;2023-05-10T08:20:09;17.10;;;8.73;;
18793;SDS011;29610;49.022;12.114;2023-05-10T08:22:59;14.87;;;8.20;;
18793;SDS011;29610;49.022;12.114;2023-05-10T08:25:48;24.30;;;9.07;;
18793;SDS011;29610;49.022;12.114;2023-05-10T08:28:37;15.00;;;7.67;;
18793;SDS011;29610;49.022;12.114;2023-05-10T08:31:26;18.83;;;8.43;;
18793;SDS011;29610;49.022;12.114;2023-05-10T08:34:15;19.63;;;8.40;;
18793;SDS011;29610;49.022;12.114;2023-05-10T08:37:06;20.60;;;8.97;;
18793;SDS011;29610;49.022;12.114;2023-05-10T08:39:55;16.53;;;7.80;;
18793;SDS011;29610;49.022;12.114;2023-05-10T08:42:47;14.17;;;7.80;;
18793;SDS011;29610;49.022;12.114;2023-05-10T08:45:46;13.87;;;7.60;;
18793;SDS011;29610;49.022;12.114;2023-05-10T08:48:38;13.27;;;7.57;;
18793;SDS011;29610;49.022;12.114;2023-05-10T08:51:28;14.73;;;6.50;;
18793;SDS011;29610;49.022;12.114;2023-05-10T08:54:25;13.40;;;6.50;;
18793;SDS011;29610;49.022;12.114;2023-05-10T08:57:14;16.30;;;7.90;;
18793;SDS011;29610;49.022;12.114;2023-05-10T09:00:04;15.13;;;6.53;;
18793;SDS011;29610;49.022;12.114;2023-05-10T09:02:55;17.10;;;6.27;;
18793;SDS011;29610;49.022;12.114;2023-05-10T09:05:45;14.23;;;6.70;;
18793;SDS011;29610;49.022;12.114;2023-05-10T09:08:35;12.87;;;5.70;;
18793;SDS011;29610;49.022;12.114;2023-05-10T09:11:26;12.30;;;6.40;;
18793;SDS011;29610;49.022;12.114;2023-05-10T09:14:16;9.67;;;3.63;;
18793;SDS011;29610;49.022;12.114;2023-05-10T09:17:07;7.03;;;1.80;;
18793;SDS011;29610;49.022;12.114;2023-05-10T09:19:58;11.57;;;5.50;;
18793;SDS011;29610;49.022;12.114;2023-05-10T09:22:47;13.70;;;6.80;;
18793;SDS011;29610;49.022;12.114;2023-05-10T09:25:36;13.70;;;5.77;;
18793;SDS011;29610;49.022;12.114;2023-05-10T09:28:27;13.80;;;6.03;;
18793;SDS011;29610;49.022;12.114;2023-05-10T09:31:20;9.53;;;2.40;;
18793;SDS011;29610;49.022;12.114;2023-05-10T09:34:16;6.50;;;1.37;;
18793;SDS011;29610;49.022;12.114;2023-05-10T09:37:06;7.13;;;1.60;;
18793;SDS011;29610;49.022;12.114;2023-05-10T09:39:56;6.90;;;1.50;;
18793;SDS011;29610;49.022;12.114;2023-05-10T09:42:51;6.60;;;1.40;;
18793;SDS011;29610;49.022;12.114;2023-05-10T09:45:43;6.43;;;1.30;;
18793;SDS011;29610;49.022;12.114;2023-05-10T09:48:39;6.17;;;1.20;;
18793;SDS011;29610;49.022;12.114;2023-05-10T09:51:31;7.00;;;1.30;;
18793;SDS011;29610;49.022;12.114;2023-05-10T09:54:23;6.53;;;1.27;;
18793;SDS011;29610;49.022;12.114;2023-05-10T09:57:18;6.67;;;1.30;;
18793;SDS011;29610;49.022;12.114;2023-05-10T10:00:09;5.90;;;1.07;;
18793;SDS011;29610;49.022;12.114;2023-05-10T10:03:07;6.70;;;1.40;;
18793;SDS011;29610;49.022;12.114;2023-05-10T10:06:02;6.83;;;1.40;;
18793;SDS011;29610;49.022;12.114;2023-05-10T10:09:08;9.03;;;1.20;;
18793;SDS011;29610;49.022;12.114;2023-05-10T10:11:58;6.30;;;1.20;;
18793;SDS011;29610;49.022;12.114;2023-05-10T10:14:48;7.10;;;1.33;;
18793;SDS011;29610;49.022;12.114;2023-05-10T10:17:37;5.93;;;1.07;;
18793;SDS011;29610;49.022;12.114;2023-05-10T10:20:28;6.50;;;1.00;;
18793;SDS011;29610;49.022;12.114;2023-05-10T10:23:17;7.73;;;1.37;;
18793;SDS011;29610;49.022;12.114;2023-05-10T10:26:06;6.63;;;1.20;;
18793;SDS011;29610;49.022;12.114;2023-05-10T10:28:57;5.97;;;1.20;;
18793;SDS011;29610;49.022;12.114;2023-05-10T10:32:06;5.97;;;1.10;;
18793;SDS011;29610;49.022;12.114;2023-05-10T10:35:06;8.90;;;1.33;;
18793;SDS011;29610;49.022;12.114;2023-05-10T10:37:58;6.70;;;1.20;;
18793;SDS011;29610;49.022;12.114;2023-05-10T10:40:48;6.60;;;1.40;;
18793;SDS011;29610;49.022;12.114;2023-05-10T10:43:55;6.80;;;1.40;;
18793;SDS011;29610;49.022;12.114;2023-05-10T10:47:21;6.20;;;1.30;;
18793;SDS011;29610;49.022;12.114;2023-05-10T10:50:14;8.00;;;1.37;;
18793;SDS011;29610;49.022;12.114;2023-05-10T10:53:11;6.30;;;1.10;;
18793;SDS011;29610;49.022;12.114;2023-05-10T10:56:07;6.40;;;1.17;;
18793;SDS011;29610;49.022;12.114;2023-05-10T10:58:58;6.10;;;1.10;;
18793;SDS011;29610;49.022;12.114;2023-05-10T11:01:51;6.17;;;1.00;;
18793;SDS011;29610;49.022;12.114;2023-05-10T11:04:44;6.50;;;1.10;;
18793;SDS011;29610;49.022;12.114;2023-05-10T11:07:33;6.40;;;1.10;;
18793;SDS011;29610;49.022;12.114;2023-05-10T11:10:24;6.20;;;1.20;;
18793;SDS011;29610;49.022;12.114;2023-05-10T11:13:15;6.83;;;1.13;;
18793;SDS011;29610;49.022;12.114;2023-05-10T11:16:14;6.10;;;1.07;;
18793;SDS011;29610;49.022;12.114;2023-05-10T11:19:06;7.03;;;1.03;;
18793;SDS011;29610;49.022;12.114;2023-05-10T11:22:13;6.77;;;1.40;;
18793;SDS011;29610;49.022;12.114;2023-05-10T11:25:02;6.70;;;1.40;;
18793;SDS011;29610;49.022;12.114;2023-05-10T11:27:55;6.97;;;1.20;;
18793;SDS011;29610;49.022;12.114;2023-05-10T11:30:44;6.40;;;1.20;;
18793;SDS011;29610;49.022;12.114;2023-05-10T11:33:41;6.60;;;1.00;;
18793;SDS011;29610;49.022;12.114;2023-05-10T11:36:33;6.17;;;1.13;;
18793;SDS011;29610;49.022;12.114;2023-05-10T11:39:25;6.30;;;1.00;;
18793;SDS011;29610;49.022;12.114;2023-05-10T11:42:15;6.20;;;1.23;;
18793;SDS011;29610;49.022;12.114;2023-05-10T11:45:06;6.23;;;1.20;;
18793;SDS011;29610;49.022;12.114;2023-05-10T11:47:56;6.10;;;1.10;;
18793;SDS011;29610;49.022;12.114;2023-05-10T11:50:46;6.33;;;1.30;;
18793;SDS011;29610;49.022;12.114;2023-05-10T11:53:35;6.20;;;1.13;;
18793;SDS011;29610;49.022;12.114;2023-05-10T11:56:25;6.20;;;1.40;;
18793;SDS011;29610;49.022;12.114;2023-05-10T11:59:14;5.93;;;1.27;;
18793;SDS011;29610;49.022;12.114;2023-05-10T12:02:04;6.30;;;1.00;;
18793;SDS011;29610;49.022;12.114;2023-05-10T12:05:12;8.97;;;1.17;;
18793;SDS011;29610;49.022;12.114;2023-05-10T12:08:11;8.00;;;1.30;;
18793;SDS011;29610;49.022;12.114;2023-05-10T12:11:05;6.37;;;1.30;;
18793;SDS011;29610;49.022;12.114;2023-05-10T12:13:57;6.23;;;1.13;;
18793;SDS011;29610;49.022;12.114;2023-05-10T12:16:46;6.27;;;1.47;;
18793;SDS011;29610;49.022;12.114;2023-05-10T12:19:40;7.03;;;1.80;;
18793;SDS011;29610;49.022;12.114;2023-05-10T12:22:33;7.77;;;1.97;;
18793;SDS011;29610;49.022;12.114;2023-05-10T12:25:22;5.70;;;0.90;;
18793;SDS011;29610;49.022;12.114;2023-05-10T12:28:18;5.83;;;0.97;;
18793;SDS011;29610;49.022;12.114;2023-05-10T12:31:09;10.83;;;1.10;;
18793;SDS011;29610;49.022;12.114;2023-05-10T12:33:58;7.03;;;1.53;;
18793;SDS011;29610;49.022;12.114;2023-05-10T12:36:51;7.40;;;1.33;;
18793;SDS011;29610;49.022;12.114;2023-05-10T12:39:40;10.23;;;1.40;;
18793;SDS011;29610;49.022;12.114;2023-05-10T12:42:32;10.07;;;1.27;;
18793;SDS011;29610;49.022;12.114;2023-05-10T12:45:22;6.13;;;1.30;;
18793;SDS011;29610;49.022;12.114;2023-05-10T12:48:13;6.37;;;1.40;;
18793;SDS011;29610;49.022;12.114;2023-05-10T12:51:02;6.57;;;1.30;;
18793;SDS011;29610;49.022;12.114;2023-05-10T12:53:53;6.63;;;1.30;;
18793;SDS011;29610;49.022;12.114;2023-05-10T12:56:42;6.37;;;0.97;;
18793;SDS011;29610;49.022;12.114;2023-05-10T12:59:31;9.30;;;1.20;;
18793;SDS011;29610;49.022;12.114;2023-05-10T13:02:23;6.60;;;1.20;;
18793;SDS011;29610;49.022;12.114;2023-05-10T13:05:12;6.17;;;1.13;;
18793;SDS011;29610;49.022;12.114;2023-05-10T13:08:01;6.53;;;1.33;;
18793;SDS011;29610;49.022;12.114;2023-05-10T13:10:51;5.83;;;1.27;;
18793;SDS011;29610;49.022;12.114;2023-05-10T13:13:43;7.17;;;1.40;;
18793;SDS011;29610;49.022;12.114;2023-05-10T13:16:32;7.40;;;1.30;;
18793;SDS011;29610;49.022;12.114;2023-05-10T13:19:22;8.30;;;1.37;;
18793;SDS011;29610;49.022;12.114;2023-05-10T13:22:11;5.37;;;0.97;;
18793;SDS011;29610;49.022;12.114;2023-05-10T13:25:01;8.60;;;1.30;;
18793;SDS011;29610;49.022;12.114;2023-05-10T13:27:52;8.50;;;1.40;;
18793;SDS011;29610;49.022;12.114;2023-05-10T13:30:43;10.60;;;1.50;;
18793;SDS011;29610;49.022;12.114;2023-05-10T13:33:32;6.70;;;1.50;;
18793;SDS011;29610;49.022;12.114;2023-05-10T13:36:21;7.77;;;1.57;;
18793;SDS011;29610;49.022;12.114;2023-05-10T13:39:10;6.33;;;1.50;;
18793;SDS011;29610;49.022;12.114;2023-05-10T13:41:58;8.20;;;1.20;;
18793;SDS011;29610;49.022;12.114;2023-05-10T13:44:49;7.67;;;1.50;;
18793;SDS011;29610;49.022;12.114;2023-05-10T13:47:38;6.60;;;1.60;;
18793;SDS011;29610;49.022;12.114;2023-05-10T13:50:26;6.80;;;1.23;;
18793;SDS011;29610;49.022;12.114;2023-05-10T13:53:17;5.80;;;1.30;;
18793;SDS011;29610;49.022;12.114;2023-05-10T13:56:06;6.03;;;1.23;;
18793;SDS011;29610;49.022;12.114;2023-05-10T13:58:55;5.87;;;1.30;;
18793;SDS011;29610;49.022;12.114;2023-05-10T14:01:46;5.43;;;0.97;;
18793;SDS011;29610;49.022;12.114;2023-05-10T14:04:35;8.23;;;2.50;;
18793;SDS011;29610;49.022;12.114;2023-05-10T14:07:23;8.67;;;1.30;;
18793;SDS011;29610;49.022;12.114;2023-05-10T14:10:14;6.07;;;1.43;;
18793;SDS011;29610;49.022;12.114;2023-05-10T14:13:03;10.53;;;1.13;;
18793;SDS011;29610;49.022;12.114;2023-05-10T14:15:53;5.77;;;1.20;;
18793;SDS011;29610;49.022;12.114;2023-05-10T14:18:44;7.03;;;1.80;;
18793;SDS011;29610;49.022;12.114;2023-05-10T14:21:33;6.07;;;1.37;;
18793;SDS011;29610;49.022;12.114;2023-05-10T14:24:21;6.40;;;1.50;;
18793;SDS011;29610;49.022;12.114;2023-05-10T14:27:10;6.40;;;1.37;;
18793;SDS011;29610;49.022;12.114;2023-05-10T14:29:59;6.07;;;1.27;;
18793;SDS011;29610;49.022;12.114;2023-05-10T14:32:48;7.20;;;1.20;;
18793;SDS011;29610;49.022;12.114;2023-05-10T14:35:39;7.57;;;1.40;;
18793;SDS011;29610;49.022;12.114;2023-05-10T14:38:28;6.30;;;1.27;;
18793;SDS011;29610;49.022;12.114;2023-05-10T14:41:17;6.60;;;1.47;;
18793;SDS011;29610;49.022;12.114;2023-05-10T14:44:06;6.50;;;1.83;;
18793;SDS011;29610;49.022;12.114;2023-05-10T14:46:54;6.80;;;1.90;;
18793;SDS011;29610;49.022;12.114;2023-05-10T14:49:43;7.30;;;1.30;;
18793;SDS011;29610;49.022;12.114;2023-05-10T14:52:33;5.67;;;1.23;;
18793;SDS011;29610;49.022;12.114;2023-05-10T14:55:23;7.83;;;1.70;;
18793;SDS011;29610;49.022;12.114;2023-05-10T14:58:12;6.20;;;1.50;;
18793;SDS011;29610;49.022;12.114;2023-05-10T15:01:01;7.10;;;1.93;;
18793;SDS011;29610;49.022;12.114;2023-05-10T15:03:50;6.87;;;1.80;;
18793;SDS011;29610;49.022;12.114;2023-05-10T15:06:40;11.63;;;1.80;;
18793;SDS011;29610;49.022;12.114;2023-05-10T15:09:30;6.60;;;1.67;;
18793;SDS011;29610;49.022;12.114;2023-05-10T15:12:21;8.83;;;1.73;;
18793;SDS011;29610;49.022;12.114;2023-05-10T15:15:13;7.60;;;2.03;;
18793;SDS011;29610;49.022;12.114;2023-05-10T15:18:02;6.63;;;1.60;;
18793;SDS011;29610;49.022;12.114;2023-05-10T15:20:52;8.10;;;1.70;;
18793;SDS011;29610;49.022;12.114;2023-05-10T15:23:42;6.30;;;1.47;;
18793;SDS011;29610;49.022;12.114;2023-05-10T15:26:32;7.73;;;2.00;;
18793;SDS011;29610;49.022;12.114;2023-05-10T15:29:21;7.93;;;1.80;;
18793;SDS011;29610;49.022;12.114;2023-05-10T15:32:10;8.27;;;1.63;;
18793;SDS011;29610;49.022;12.114;2023-05-10T15:35:00;8.60;;;1.80;;
18793;SDS011;29610;49.022;12.114;2023-05-10T15:37:49;7.87;;;1.90;;
18793;SDS011;29610;49.022;12.114;2023-05-10T15:40:38;6.80;;;1.90;;
18793;SDS011;29610;49.022;12.114;2023-05-10T15:43:28;6.63;;;1.60;;
18793;SDS011;29610;49.022;12.114;2023-05-10T15:46:17;8.37;;;2.20;;
18793;SDS011;29610;49.022;12.114;2023-05-10T15:49:06;7.43;;;2.10;;
18793;SDS011;29610;49.022;12.114;2023-05-10T15:51:55;9.33;;;2.50;;
18793;SDS011;29610;49.022;12.114;2023-05-10T15:54:44;8.00;;;2.10;;
18793;SDS011;29610;49.022;12.114;2023-05-10T15:57:33;13.53;;;2.77;;
18793;SDS011;29610;49.022;12.114;2023-05-10T16:00:24;10.30;;;2.80;;
18793;SDS011;29610;49.022;12.114;2023-05-10T16:03:13;9.67;;;2.83;;
18793;SDS011;29610;49.022;12.114;2023-05-10T16:06:02;7.87;;;2.63;;
18793;SDS011;29610;49.022;12.114;2023-05-10T16:08:52;7.90;;;2.83;;
18793;SDS011;29610;49.022;12.114;2023-05-10T16:11:41;7.70;;;2.80;;
18793;SDS011;29610;49.022;12.114;2023-05-10T16:14:31;7.90;;;3.10;;
18793;SDS011;29610;49.022;12.114;2023-05-10T16:17:21;8.87;;;3.27;;
18793;SDS011;29610;49.022;12.114;2023-05-10T16:20:10;10.70;;;3.33;;
18793;SDS011;29610;49.022;12.114;2023-05-10T16:23:00;9.77;;;3.50;;
18793;SDS011;29610;49.022;12.114;2023-05-10T16:25:52;8.57;;;2.97;;
18793;SDS011;29610;49.022;12.114;2023-05-10T16:28:41;7.70;;;3.23;;
18793;SDS011;29610;49.022;12.114;2023-05-10T16:31:30;9.00;;;3.40;;
18793;SDS011;29610;49.022;12.114;2023-05-10T16:34:22;11.67;;;3.20;;
18793;SDS011;29610;49.022;12.114;2023-05-10T16:37:11;8.03;;;3.57;;
18793;SDS011;29610;49.022;12.114;2023-05-10T16:40:00;10.97;;;4.00;;
18793;SDS011;29610;49.022;12.114;2023-05-10T16:42:49;10.30;;;5.17;;
18793;SDS011;29610;49.022;12.114;2023-05-10T16:45:38;11.77;;;4.40;;
18793;SDS011;29610;49.022;12.114;2023-05-10T16:48:28;8.20;;;3.10;;
18793;SDS011;29610;49.022;12.114;2023-05-10T16:51:20;9.20;;;4.13;;